Time;durP1;ratioP1;P1;durP2;ratioP2;P2;SDS_P1;SDS_P2;PMS_P1;PMS_P2;Temp;Humidity;BMP_temperature;BMP_pressure;BME280_temperature;BME280_humidity;BME280_pressure;Samples;Min_cycle;Max_cycle;Signal;HPM_P1;HPM_P2
2021/05/16 00:00:35;;;;;;;13.80;12.40;;;12.70;75.00;;;;;;5090761;28;20109;-76
2021/05/16 00:03:01;;;;;;;14.85;13.38;;;12.70;75.10;;;;;;5089687;28;20043;-75
2021/05/16 00:05:28;;;;;;;15.55;13.55;;;12.70;75.10;;;;;;5089688;28;20044;-76
2021/05/16 00:07:53;;;;;;;14.68;13.27;;;12.70;75.20;;;;;;5092619;28;20040;-76
2021/05/16 00:10:20;;;;;;;15.45;13.18;;;12.70;75.20;;;;;;5093322;28;20055;-76
2021/05/16 00:12:46;;;;;;;15.25;13.75;;;12.70;75.30;;;;;;5059034;28;20146;-76
2021/05/16 00:15:14;;;;;;;15.57;13.82;;;12.70;75.40;;;;;;5093610;28;20086;-76
2021/05/16 00:17:40;;;;;;;15.25;13.63;;;12.70;75.50;;;;;;5092298;28;20509;-77
2021/05/16 00:20:09;;;;;;;15.25;13.75;;;12.70;75.60;;;;;;5092798;28;20048;-76
2021/05/16 00:22:38;;;;;;;15.13;13.50;;;12.70;75.60;;;;;;5076032;28;20086;-77
2021/05/16 00:25:07;;;;;;;14.68;13.32;;;12.60;75.60;;;;;;5094222;28;20044;-76
2021/05/16 00:27:34;;;;;;;16.02;14.45;;;12.60;75.70;;;;;;5092418;28;20189;-76
2021/05/16 00:30:00;;;;;;;16.27;14.68;;;12.60;75.70;;;;;;5094153;28;20048;-76
2021/05/16 00:32:25;;;;;;;16.30;14.73;;;12.70;76.60;;;;;;5059028;28;20121;-76
2021/05/16 00:34:51;;;;;;;16.55;14.85;;;12.60;75.90;;;;;;5093148;28;20109;-76
2021/05/16 00:37:17;;;;;;;16.35;14.75;;;12.60;76.00;;;;;;5092702;28;20127;-75
2021/05/16 00:39:43;;;;;;;15.93;14.40;;;12.60;76.00;;;;;;5091927;28;20080;-76
2021/05/16 00:42:09;;;;;;;16.80;15.10;;;12.50;76.00;;;;;;5094127;28;20402;-77
2021/05/16 00:44:35;;;;;;;16.48;14.77;;;12.50;76.10;;;;;;5075038;28;20164;-77
2021/05/16 00:47:00;;;;;;;16.70;15.10;;;12.50;76.10;;;;;;5092437;28;20044;-76
2021/05/16 00:49:27;;;;;;;16.55;14.85;;;12.50;76.20;;;;;;5093722;28;20044;-75
2021/05/16 00:51:52;;;;;;;16.88;15.18;;;12.50;76.30;;;;;;5091871;28;20050;-76
2021/05/16 00:54:18;;;;;;;17.77;15.73;;;12.50;76.30;;;;;;5092444;28;20040;-76
2021/05/16 00:56:44;;;;;;;19.33;17.27;;;12.40;76.40;;;;;;5091860;28;20467;-77
2021/05/16 00:59:09;;;;;;;18.02;16.33;;;12.50;76.50;;;;;;5093144;28;20047;-77
2021/05/16 01:01:35;;;;;;;18.45;16.42;;;12.50;76.60;;;;;;5093229;28;20055;-83
2021/05/16 01:04:01;;;;;;;18.00;16.20;;;12.40;76.60;;;;;;5092126;28;20063;-76
2021/05/16 01:06:27;;;;;;;19.30;17.42;;;12.40;76.60;;;;;;5092131;28;20044;-76
2021/05/16 01:08:57;;;;;;;19.58;17.58;;;12.40;76.70;;;;;;5092918;28;20075;-76
2021/05/16 01:11:25;;;;;;;19.30;17.40;;;12.40;76.70;;;;;;5093156;28;20040;-76
2021/05/16 01:13:51;;;;;;;19.42;17.50;;;12.40;76.80;;;;;;5074839;28;20067;-76
2021/05/16 01:16:17;;;;;;;19.75;17.75;;;12.40;76.80;;;;;;5093300;28;20077;-75
2021/05/16 01:18:42;;;;;;;19.20;17.30;;;12.30;76.80;;;;;;5091011;28;20051;-77
2021/05/16 01:21:08;;;;;;;20.58;18.48;;;12.30;76.90;;;;;;5075021;28;20040;-76
2021/05/16 01:23:45;;;;;;;20.73;18.65;;;12.30;76.90;;;;;;5092895;28;20444;-76
2021/05/16 01:26:11;;;;;;;21.08;18.98;;;12.30;77.10;;;;;;5092062;28;20036;-83
2021/05/16 01:28:37;;;;;;;20.55;18.38;;;12.30;77.10;;;;;;5093105;28;20040;-76
2021/05/16 01:31:03;;;;;;;19.65;17.70;;;12.30;77.10;;;;;;5074547;28;20469;-77
2021/05/16 01:33:28;;;;;;;23.58;21.17;;;12.30;77.20;;;;;;5092616;28;20502;-75
2021/05/16 01:36:01;;;;;;;20.70;18.65;;;12.20;77.20;;;;;;5091196;28;20044;-76
2021/05/16 01:38:27;;;;;;;19.75;17.67;;;12.30;77.30;;;;;;5091397;28;20055;-77
2021/05/16 01:40:53;;;;;;;20.55;17.95;;;12.30;77.40;;;;;;5092456;28;20439;-77
2021/05/16 01:43:21;;;;;;;20.02;17.92;;;12.30;78.30;;;;;;5091297;28;20377;-77
2021/05/16 01:45:47;;;;;;;21.23;18.90;;;12.20;77.60;;;;;;5074058;28;20044;-77
2021/05/16 01:48:12;;;;;;;20.08;18.00;;;12.30;77.60;;;;;;5092827;28;20488;-75
2021/05/16 01:50:42;;;;;;;18.67;16.75;;;12.30;77.70;;;;;;5092446;28;20036;-85
2021/05/16 01:53:08;;;;;;;20.67;18.48;;;12.20;78.50;;;;;;5092520;28;20109;-76
2021/05/16 01:55:34;;;;;;;19.52;17.52;;;12.20;77.80;;;;;;5074525;28;20051;-77
2021/05/16 01:58:00;;;;;;;19.42;17.30;;;12.20;77.80;;;;;;5090751;28;20040;-76
2021/05/16 02:00:27;;;;;;;23.83;18.58;;;12.30;77.80;;;;;;5092541;28;20047;-75
2021/05/16 02:02:53;;;;;;;19.45;17.45;;;12.30;77.90;;;;;;5091554;28;20047;-77
2021/05/16 02:05:19;;;;;;;21.90;18.15;;;12.20;77.90;;;;;;5092395;28;20419;-77
2021/05/16 02:07:47;;;;;;;20.10;17.98;;;12.20;78.00;;;;;;5091811;28;20048;-83
2021/05/16 02:10:15;;;;;;;20.35;18.23;;;12.20;77.90;;;;;;5090397;28;20051;-77
2021/05/16 02:12:41;;;;;;;21.60;17.48;;;12.20;78.00;;;;;;5073632;28;20056;-76
2021/05/16 02:15:10;;;;;;;18.95;16.95;;;12.10;78.00;;;;;;5091523;28;20116;-76
2021/05/16 02:17:38;;;;;;;22.25;17.40;;;12.10;78.00;;;;;;5092173;28;20048;-77
2021/05/16 02:20:13;;;;;;;20.92;17.60;;;12.10;78.00;;;;;;5090121;28;20059;-76
2021/05/16 02:22:39;;;;;;;19.45;16.50;;;12.10;78.10;;;;;;5073958;28;20052;-76
2021/05/16 02:25:05;;;;;;;18.15;16.25;;;12.10;78.10;;;;;;5091402;28;20051;-76
2021/05/16 02:27:31;;;;;;;18.55;15.55;;;12.10;78.10;;;;;;5073611;28;20438;-77
2021/05/16 02:29:57;;;;;;;18.17;15.70;;;12.10;78.00;;;;;;5090684;28;20123;-76
2021/05/16 02:32:22;;;;;;;20.73;17.17;;;12.00;78.00;;;;;;5090706;28;20131;-78
2021/05/16 02:34:48;;;;;;;22.25;17.70;;;12.00;78.10;;;;;;5090414;28;20113;-84
2021/05/16 02:37:14;;;;;;;22.33;17.23;;;12.00;78.20;;;;;;5090551;28;20133;-77
2021/05/16 02:39:41;;;;;;;20.20;17.00;;;12.00;78.10;;;;;;5073426;28;20497;-77
2021/05/16 02:42:08;;;;;;;19.75;17.27;;;12.00;78.20;;;;;;5073141;28;20460;-76
2021/05/16 02:44:33;;;;;;;22.58;17.48;;;11.90;78.10;;;;;;5091714;28;20126;-76
2021/05/16 02:46:59;;;;;;;22.63;18.23;;;11.90;78.10;;;;;;5091207;28;20407;-76
2021/05/16 02:49:25;;;;;;;20.92;17.42;;;12.00;78.20;;;;;;5090585;28;20488;-76
2021/05/16 02:51:51;;;;;;;22.58;17.25;;;11.90;78.10;;;;;;5090028;28;20050;-81
2021/05/16 02:54:17;;;;;;;23.60;18.08;;;11.90;78.20;;;;;;5091496;28;20044;-77
2021/05/16 02:56:43;;;;;;;24.52;17.48;;;11.90;78.10;;;;;;5091644;28;20050;-77
2021/05/16 02:59:08;;;;;;;23.70;17.65;;;11.90;78.20;;;;;;5089538;28;20135;-76
2021/05/16 03:01:34;;;;;;;22.20;17.05;;;11.90;78.10;;;;;;5091680;28;20102;-75
2021/05/16 03:04:00;;;;;;;21.85;17.00;;;11.90;78.20;;;;;;5090904;28;20126;-78
2021/05/16 03:06:26;;;;;;;23.80;18.30;;;11.90;78.20;;;;;;5091581;28;20044;-77
2021/05/16 03:08:52;;;;;;;24.25;18.35;;;11.90;78.20;;;;;;5090091;28;20048;-75
2021/05/16 03:11:17;;;;;;;25.27;17.38;;;11.90;78.30;;;;;;5089522;28;20046;-76
2021/05/16 03:13:43;;;;;;;27.88;18.80;;;11.90;78.30;;;;;;5090226;28;20063;-77
2021/05/16 03:16:09;;;;;;;26.45;18.38;;;11.90;78.40;;;;;;5072933;28;20067;-77
2021/05/16 03:18:34;;;;;;;25.42;18.20;;;11.90;78.40;;;;;;5052989;28;20040;-76
2021/05/16 03:21:00;;;;;;;24.10;17.77;;;11.90;78.40;;;;;;5070497;28;20068;-76
2021/05/16 03:23:26;;;;;;;25.17;17.63;;;11.90;78.50;;;;;;5070899;28;20096;-76
2021/05/16 03:25:52;;;;;;;27.52;18.40;;;11.90;78.40;;;;;;5069635;28;20040;-75
2021/05/16 03:28:17;;;;;;;22.30;17.15;;;11.90;79.20;;;;;;5086067;28;20036;-76
2021/05/16 03:30:43;;;;;;;27.35;18.92;;;11.90;78.50;;;;;;5071081;28;20124;-77
2021/05/16 03:33:09;;;;;;;23.63;17.85;;;11.90;79.30;;;;;;5070479;28;20101;-76
2021/05/16 03:35:35;;;;;;;25.20;16.70;;;11.90;78.50;;;;;;5086632;28;20048;-77
2021/05/16 03:38:00;;;;;;;24.33;17.83;;;11.90;78.50;;;;;;5085988;28;20052;-77
2021/05/16 03:40:26;;;;;;;27.17;19.02;;;11.90;78.60;;;;;;5070934;28;20064;-76
2021/05/16 03:42:52;;;;;;;25.88;18.08;;;11.90;78.60;;;;;;5074345;28;20051;-76
2021/05/16 03:45:17;;;;;;;25.85;18.08;;;11.90;78.60;;;;;;5089982;28;20072;-77
2021/05/16 03:47:43;;;;;;;26.88;18.60;;;11.90;78.60;;;;;;5089970;28;20497;-76
2021/05/16 03:50:11;;;;;;;25.25;17.50;;;11.90;78.60;;;;;;5089869;28;20132;-75
2021/05/16 03:52:39;;;;;;;28.27;18.55;;;11.90;78.70;;;;;;5074521;28;20040;-75
2021/05/16 03:55:06;;;;;;;25.83;18.95;;;11.90;78.70;;;;;;5089784;28;20481;-76
2021/05/16 03:57:32;;;;;;;27.80;18.30;;;11.90;78.80;;;;;;5074738;28;20052;-76
2021/05/16 03:59:58;;;;;;;25.98;18.70;;;11.90;78.70;;;;;;5090272;28;20435;-77
2021/05/16 04:02:23;;;;;;;28.63;19.38;;;11.90;78.80;;;;;;5073988;28;20106;-77
2021/05/16 04:04:49;;;;;;;29.48;18.75;;;11.90;78.80;;;;;;5090250;28;20048;-77
2021/05/16 04:07:15;;;;;;;28.83;19.55;;;11.90;78.80;;;;;;5089439;28;20052;-77
2021/05/16 04:09:41;;;;;;;25.45;18.63;;;11.90;78.80;;;;;;5089653;28;20044;-76
2021/05/16 04:12:07;;;;;;;29.17;18.98;;;11.90;78.80;;;;;;5073929;28;20500;-77
2021/05/16 04:14:33;;;;;;;25.27;19.02;;;11.90;78.80;;;;;;5074418;28;20128;-77
2021/05/16 04:17:02;;;;;;;30.77;19.98;;;11.90;78.80;;;;;;5089786;28;20469;-77
2021/05/16 04:19:28;;;;;;;28.40;19.88;;;11.90;78.90;;;;;;5074203;28;20067;-77
2021/05/16 04:21:53;;;;;;;27.05;19.60;;;12.00;78.90;;;;;;5089781;28;20485;-77
2021/05/16 04:24:19;;;;;;;29.42;19.85;;;11.90;78.90;;;;;;5073841;28;20044;-74
2021/05/16 04:26:45;;;;;;;33.28;21.85;;;11.90;78.90;;;;;;5089666;28;20044;-74
2021/05/16 04:29:15;;;;;;;26.38;19.98;;;12.00;79.00;;;;;;5089169;28;20044;-76
2021/05/16 04:31:41;;;;;;;29.67;20.02;;;12.00;79.00;;;;;;5074096;28;20174;-76
2021/05/16 04:34:07;;;;;;;30.63;20.80;;;12.00;79.00;;;;;;5073485;28;20131;-78
2021/05/16 04:36:35;;;;;;;30.83;19.98;;;12.00;79.10;;;;;;5074017;28;20048;-76
2021/05/16 04:39:01;;;;;;;33.60;22.23;;;12.00;79.10;;;;;;5089177;28;20059;-76
2021/05/16 04:41:27;;;;;;;30.42;21.75;;;12.00;79.20;;;;;;5088997;28;20036;-78
2021/05/16 04:43:52;;;;;;;33.88;20.60;;;12.00;79.10;;;;;;5073936;28;20493;-77
2021/05/16 04:46:18;;;;;;;31.50;21.27;;;12.10;79.20;;;;;;5088753;28;20044;-74
2021/05/16 04:48:44;;;;;;;29.60;20.02;;;12.10;79.30;;;;;;5089260;28;20066;-77
2021/05/16 04:51:12;;;;;;;30.35;20.92;;;12.10;79.30;;;;;;5073138;28;20048;-76
2021/05/16 04:53:38;;;;;;;32.13;21.25;;;12.10;79.30;;;;;;5071588;28;20079;-78
2021/05/16 04:56:05;;;;;;;28.40;21.00;;;12.10;79.40;;;;;;5073531;28;20068;-76
2021/05/16 04:58:31;;;;;;;30.77;21.30;;;12.10;79.50;;;;;;5073065;28;20207;-77
2021/05/16 05:01:00;;;;;;;31.60;21.38;;;12.10;79.50;;;;;;5088968;28;20533;-78
2021/05/16 05:03:26;;;;;;;29.88;21.70;;;12.10;79.60;;;;;;5088344;28;20044;-77
2021/05/16 05:05:55;;;;;;;29.13;21.60;;;12.10;79.60;;;;;;5089030;28;20052;-76
2021/05/16 05:08:25;;;;;;;32.55;22.17;;;12.10;79.60;;;;;;5088452;28;20032;-77
2021/05/16 05:10:51;;;;;;;32.38;22.00;;;12.20;79.60;;;;;;5088209;28;20044;-75
2021/05/16 05:13:16;;;;;;;32.03;20.52;;;12.20;79.50;;;;;;5087876;28;20047;-77
2021/05/16 05:15:42;;;;;;;34.17;21.27;;;12.20;79.40;;;;;;5073249;28;20048;-76
2021/05/16 05:18:08;;;;;;;28.73;20.63;;;12.20;79.40;;;;;;5088913;28;20109;-76
2021/05/16 05:20:34;;;;;;;36.65;21.52;;;12.30;79.40;;;;;;5091544;28;20469;-77
2021/05/16 05:23:00;;;;;;;26.95;21.42;;;12.30;79.40;;;;;;5093418;28;20067;-78
2021/05/16 05:25:27;;;;;;;32.35;21.73;;;12.30;79.60;;;;;;5092666;28;20044;-77
2021/05/16 05:27:56;;;;;;;33.20;23.25;;;12.30;79.60;;;;;;5075340;28;20058;-77
2021/05/16 05:30:22;;;;;;;29.60;20.95;;;12.30;79.70;;;;;;5091176;28;20036;-76
2021/05/16 05:32:48;;;;;;;34.78;22.10;;;12.30;79.60;;;;;;5091901;28;20040;-77
2021/05/16 05:35:14;;;;;;;30.83;21.33;;;12.30;79.60;;;;;;5092596;28;20377;-75
2021/05/16 05:37:40;;;;;;;29.27;21.00;;;12.30;79.60;;;;;;5091784;28;20067;-76
2021/05/16 05:40:06;;;;;;;31.67;21.58;;;12.40;79.60;;;;;;5074323;28;20067;-76
2021/05/16 05:42:32;;;;;;;32.78;21.55;;;12.40;79.60;;;;;;5092485;28;20124;-78
2021/05/16 05:44:58;;;;;;;28.70;20.08;;;12.40;79.60;;;;;;5092889;28;20071;-77
2021/05/16 05:47:24;;;;;;;25.77;19.10;;;12.40;79.50;;;;;;5092323;28;20051;-77
2021/05/16 05:49:50;;;;;;;34.10;20.20;;;12.50;79.50;;;;;;5091701;28;20040;-77
2021/05/16 05:52:16;;;;;;;32.40;20.55;;;12.50;79.40;;;;;;5074060;28;20047;-83
2021/05/16 05:54:42;;;;;;;32.85;21.23;;;12.50;79.40;;;;;;5092746;28;20093;-77
2021/05/16 05:57:08;;;;;;;34.60;20.77;;;12.50;79.30;;;;;;5091584;28;20040;-76
2021/05/16 05:59:34;;;;;;;29.48;19.42;;;12.50;79.30;;;;;;5074018;28;20127;-76
2021/05/16 06:02:00;;;;;;;30.42;19.83;;;12.50;79.40;;;;;;5092606;28;20044;-77
2021/05/16 06:04:26;;;;;;;31.92;20.13;;;12.50;80.20;;;;;;5092055;28;20036;-77
2021/05/16 06:06:51;;;;;;;32.38;19.33;;;12.50;79.40;;;;;;5108015;28;20117;-78
2021/05/16 06:09:18;;;;;;;38.28;21.75;;;12.50;79.40;;;;;;5091190;28;20114;-85
2021/05/16 06:11:43;;;;;;;31.17;19.90;;;12.50;79.40;;;;;;5090785;28;20036;-76
2021/05/16 06:14:09;;;;;;;33.65;20.48;;;12.60;79.30;;;;;;5091228;28;20047;-77
2021/05/16 06:16:35;;;;;;;30.05;19.60;;;12.60;80.00;;;;;;5091735;28;20123;-77
2021/05/16 06:19:00;;;;;;;34.78;19.63;;;12.60;79.20;;;;;;5090724;28;20120;-77
2021/05/16 06:21:27;;;;;;;33.10;19.13;;;12.60;79.10;;;;;;5091827;28;20122;-77
2021/05/16 06:24:10;;;;;;;34.22;18.80;;;12.70;79.00;;;;;;5074087;28;20044;-78
2021/05/16 06:26:37;;;;;;;33.85;18.52;;;12.80;78.90;;;;;;5094638;28;20090;-76
2021/05/16 06:29:04;;;;;;;35.35;21.42;;;12.80;78.70;;;;;;5059223;28;20416;-76
2021/05/16 06:31:30;;;;;;;38.88;20.70;;;12.90;78.60;;;;;;5090240;28;20040;-77
2021/05/16 06:33:56;;;;;;;36.28;20.00;;;12.90;78.40;;;;;;5090748;28;20040;-76
2021/05/16 06:36:22;;;;;;;37.08;19.30;;;12.90;78.30;;;;;;5056873;28;20439;-78
2021/05/16 06:38:48;;;;;;;36.47;19.25;;;12.90;78.10;;;;;;5073804;28;20072;-76
2021/05/16 06:41:18;;;;;;;33.08;18.40;;;12.90;78.30;;;;;;5090938;28;20471;-76
2021/05/16 06:43:43;;;;;;;36.88;19.77;;;13.00;78.10;;;;;;5091421;28;20522;-76
2021/05/16 06:46:09;;;;;;;35.72;19.73;;;13.00;78.00;;;;;;5090716;28;20086;-76
2021/05/16 06:48:35;;;;;;;35.00;19.35;;;13.00;78.10;;;;;;5073533;28;20393;-75
2021/05/16 06:51:05;;;;;;;34.00;18.75;;;13.00;78.20;;;;;;5090471;28;20082;-77
2021/05/16 06:53:31;;;;;;;33.85;20.05;;;13.00;78.30;;;;;;5073512;28;20106;-76
2021/05/16 06:55:57;;;;;;;38.65;21.15;;;13.00;78.30;;;;;;5073616;28;20072;-77
2021/05/16 06:58:23;;;;;;;35.60;19.98;;;13.00;78.40;;;;;;5073904;28;20067;-77
2021/05/16 07:00:49;;;;;;;42.55;18.90;;;13.10;78.30;;;;;;5090233;28;20094;-77
2021/05/16 07:03:15;;;;;;;36.78;19.58;;;13.10;78.40;;;;;;5090527;28;20458;-78
2021/05/16 07:05:42;;;;;;;39.97;19.58;;;13.10;78.30;;;;;;5091276;28;20040;-78
2021/05/16 07:08:10;;;;;;;35.85;18.17;;;13.10;78.20;;;;;;5073950;28;20044;-77
2021/05/16 07:10:36;;;;;;;32.70;16.83;;;13.10;78.00;;;;;;5089775;28;20093;-75
2021/05/16 07:13:01;;;;;;;30.92;16.15;;;13.20;77.80;;;;;;5090063;28;20089;-75
2021/05/16 07:15:27;;;;;;;23.83;13.15;;;13.20;77.60;;;;;;5090085;28;20143;-88
2021/05/16 07:17:53;;;;;;;28.60;14.18;;;13.20;77.20;;;;;;5095321;28;20119;-77
2021/05/16 07:20:19;;;;;;;27.30;13.63;;;13.30;77.30;;;;;;5095704;28;20542;-77
2021/05/16 07:22:44;;;;;;;24.10;13.63;;;13.30;77.30;;;;;;5077454;28;20048;-77
2021/05/16 07:25:11;;;;;;;26.10;13.93;;;13.30;77.40;;;;;;5094491;28;20047;-78
2021/05/16 07:27:37;;;;;;;20.50;13.15;;;13.30;77.40;;;;;;5093879;28;20469;-76
2021/05/16 07:30:06;;;;;;;23.42;12.73;;;13.30;77.40;;;;;;5095691;28;20057;-75
2021/05/16 07:32:32;;;;;;;27.98;13.30;;;13.30;77.50;;;;;;5094732;28;20044;-78
2021/05/16 07:34:58;;;;;;;25.15;14.57;;;13.30;77.50;;;;;;5094409;28;20051;-77
2021/05/16 07:37:24;;;;;;;26.23;14.57;;;13.40;77.50;;;;;;5093733;28;20481;-77
2021/05/16 07:39:51;;;;;;;28.80;15.90;;;13.40;77.50;;;;;;5092956;28;20056;-77
2021/05/16 07:42:18;;;;;;;31.08;15.75;;;13.40;77.50;;;;;;5094000;28;20044;-78
2021/05/16 07:44:43;;;;;;;36.90;17.17;;;13.40;77.40;;;;;;5076856;28;20101;-78
2021/05/16 07:47:09;;;;;;;33.35;17.92;;;13.50;77.40;;;;;;5095219;28;20542;-76
2021/05/16 07:49:35;;;;;;;29.92;15.98;;;13.50;77.20;;;;;;5093420;28;20075;-78
2021/05/16 07:52:01;;;;;;;29.42;16.90;;;13.50;77.20;;;;;;5093843;28;20101;-75
2021/05/16 07:54:30;;;;;;;29.55;15.93;;;13.60;77.20;;;;;;5076981;28;20040;-78
2021/05/16 07:56:58;;;;;;;31.40;15.65;;;13.60;77.00;;;;;;5076436;28;20036;-76
2021/05/16 07:59:24;;;;;;;23.45;15.02;;;13.60;76.80;;;;;;5093597;28;20144;-79
2021/05/16 08:01:52;;;;;;;27.05;15.25;;;13.70;76.60;;;;;;5093148;28;20064;-79
2021/05/16 08:04:18;;;;;;;24.50;14.65;;;13.80;76.40;;;;;;5077090;28;20050;-79
2021/05/16 08:06:45;;;;;;;26.05;14.18;;;13.80;76.10;;;;;;5094227;28;20051;-77
2021/05/16 08:09:11;;;;;;;27.15;15.15;;;13.90;75.90;;;;;;5094827;28;20044;-80
2021/05/16 08:11:36;;;;;;;23.17;14.48;;;13.90;75.60;;;;;;5093599;28;20400;-78
2021/05/16 08:14:03;;;;;;;23.80;15.07;;;13.90;75.50;;;;;;5093193;28;20079;-77
2021/05/16 08:16:30;;;;;;;30.75;16.13;;;13.90;75.50;;;;;;5094742;28;20051;-75
2021/05/16 08:18:56;;;;;;;29.00;15.55;;;13.90;75.50;;;;;;5092870;28;20274;-75
2021/05/16 08:21:22;;;;;;;30.50;16.10;;;13.80;75.40;;;;;;5094585;28;20040;-78
2021/05/16 08:23:48;;;;;;;23.98;14.25;;;13.80;75.50;;;;;;5092716;28;20051;-76
2021/05/16 08:26:14;;;;;;;31.65;15.77;;;13.80;75.60;;;;;;5094411;28;20097;-75
2021/05/16 08:28:39;;;;;;;31.52;14.80;;;13.70;75.90;;;;;;5092441;28;20480;-76
2021/05/16 08:31:05;;;;;;;24.15;13.32;;;13.70;76.20;;;;;;5094425;28;20036;-76
2021/05/16 08:33:31;;;;;;;23.67;13.73;;;13.70;76.40;;;;;;5094206;28;20040;-78
2021/05/16 08:35:56;;;;;;;24.23;14.07;;;13.70;76.60;;;;;;5093833;28;20044;-76
2021/05/16 08:38:23;;;;;;;22.38;13.05;;;13.70;76.90;;;;;;5092940;28;20036;-78
2021/05/16 08:40:48;;;;;;;18.42;10.93;;;13.60;77.10;;;;;;5093193;28;20408;-78
2021/05/16 08:43:14;;;;;;;18.50;11.00;;;13.70;77.10;;;;;;5092585;28;20039;-77
2021/05/16 08:45:42;;;;;;;14.48;7.72;;;13.70;77.00;;;;;;5094076;28;20037;-79
2021/05/16 08:48:08;;;;;;;13.35;7.07;;;13.70;76.90;;;;;;5092670;28;20101;-75
2021/05/16 08:50:33;;;;;;;11.02;6.15;;;13.70;76.90;;;;;;5094060;28;20476;-77
2021/05/16 08:52:59;;;;;;;12.43;6.10;;;13.70;77.00;;;;;;5092136;28;20047;-76
2021/05/16 08:55:27;;;;;;;7.25;4.25;;;13.70;77.00;;;;;;5075762;28;20052;-77
2021/05/16 08:57:53;;;;;;;8.00;4.28;;;13.60;76.90;;;;;;5091347;28;20503;-76
2021/05/16 09:00:20;;;;;;;7.55;3.90;;;13.60;77.00;;;;;;5092155;28;20048;-75
2021/05/16 09:03:13;;;;;;;11.07;4.65;;;13.60;77.00;;;;;;5092838;28;20047;-76
2021/05/16 09:05:49;;;;;;;12.77;5.38;;;13.60;77.10;;;;;;5093279;28;20040;-77
2021/05/16 09:08:22;;;;;;;7.97;5.32;;;13.50;77.00;;;;;;5092013;28;20085;-77
2021/05/16 09:10:55;;;;;;;8.52;5.18;;;13.60;77.00;;;;;;5091168;28;20060;-76
2021/05/16 09:13:22;;;;;;;7.60;4.85;;;13.50;77.00;;;;;;5092968;28;20072;-76
2021/05/16 09:16:15;;;;;;;8.40;5.05;;;13.60;77.10;;;;;;5090957;28;20048;-77
2021/05/16 09:18:51;;;;;;;18.08;5.40;;;13.60;77.10;;;;;;5092693;28;20044;-77
2021/05/16 09:21:25;;;;;;;12.80;5.93;;;13.60;77.10;;;;;;5092810;28;20074;-78
2021/05/16 09:24:13;;;;;;;8.57;5.63;;;13.60;77.10;;;;;;5074359;28;20059;-77
2021/05/16 09:26:56;;;;;;;10.25;5.28;;;13.70;77.00;;;;;;5091732;28;20134;-77
2021/05/16 09:29:40;;;;;;;12.02;5.25;;;13.80;77.30;;;;;;5091886;28;20063;-76
2021/05/16 09:32:07;;;;;;;10.35;5.85;;;13.90;77.20;;;;;;5090587;28;20044;-79
2021/05/16 09:34:34;;;;;;;10.77;6.43;;;14.10;77.00;;;;;;5091247;28;20044;-78
2021/05/16 09:37:00;;;;;;;12.38;5.85;;;14.20;77.30;;;;;;5090954;28;20040;-78
2021/05/16 09:39:34;;;;;;;8.88;6.15;;;14.30;76.90;;;;;;5073730;28;20063;-77
2021/05/16 09:42:01;;;;;;;10.02;5.30;;;14.40;76.40;;;;;;5090689;28;20093;-79
2021/05/16 09:44:36;;;;;;;8.57;5.43;;;14.50;76.20;;;;;;5074476;28;20047;-79
2021/05/16 09:47:22;;;;;;;10.40;5.43;;;14.50;75.90;;;;;;5090935;28;20469;-81
2021/05/16 09:50:06;;;;;;;9.07;5.00;;;14.50;76.30;;;;;;5092467;28;20044;-77
2021/05/16 09:52:34;;;;;;;7.65;4.53;;;14.40;75.30;;;;;;5092476;28;20044;-78
2021/05/16 09:55:04;;;;;;;14.50;5.80;;;14.40;75.70;;;;;;5090945;28;20130;-77
2021/05/16 09:57:33;;;;;;;12.48;4.53;;;14.40;76.00;;;;;;5092754;28;20113;-77
2021/05/16 10:00:00;;;;;;;11.10;4.18;;;14.30;76.00;;;;;;5091026;28;20044;-77
2021/05/16 10:02:27;;;;;;;6.32;3.75;;;14.20;76.90;;;;;;5091430;28;20075;-77
2021/05/16 10:04:58;;;;;;;6.18;3.13;;;14.20;76.30;;;;;;5090863;28;20036;-85
2021/05/16 10:07:24;;;;;;;6.78;4.03;;;14.10;76.40;;;;;;5091080;28;20126;-81
2021/05/16 10:09:53;;;;;;;6.53;3.22;;;14.20;76.70;;;;;;5090955;28;20122;-77
2021/05/16 10:12:20;;;;;;;9.45;3.70;;;14.30;76.90;;;;;;5090852;28;20063;-76
2021/05/16 10:14:48;;;;;;;8.02;3.70;;;14.40;77.10;;;;;;5092216;28;20097;-76
2021/05/16 10:17:15;;;;;;;7.10;3.90;;;14.50;77.10;;;;;;5090564;28;20059;-77
2021/05/16 10:19:44;;;;;;;9.90;4.13;;;14.50;76.90;;;;;;5091142;28;20153;-77
2021/05/16 10:22:18;;;;;;;9.77;4.47;;;14.60;76.90;;;;;;5090371;28;20127;-75
2021/05/16 10:24:48;;;;;;;6.78;3.70;;;14.60;76.80;;;;;;5092222;28;20051;-76
2021/05/16 10:27:21;;;;;;;6.15;2.95;;;14.60;76.60;;;;;;5090235;28;20036;-75
2021/05/16 10:30:00;;;;;;;5.45;2.33;;;14.70;76.60;;;;;;5091810;28;20040;-77
2021/05/16 10:32:37;;;;;;;5.35;2.08;;;14.60;76.30;;;;;;5090757;28;20400;-76
2021/05/16 10:35:07;;;;;;;5.18;2.47;;;14.60;75.80;;;;;;5090312;28;20039;-76
2021/05/16 10:37:40;;;;;;;4.82;1.92;;;14.60;76.30;;;;;;5090870;28;20047;-78
2021/05/16 10:40:12;;;;;;;6.90;2.60;;;14.50;75.20;;;;;;5089116;28;20059;-78
2021/05/16 10:42:44;;;;;;;5.63;2.38;;;14.50;75.30;;;;;;5091887;28;20253;-76
2021/05/16 10:45:17;;;;;;;4.88;1.98;;;14.50;75.30;;;;;;5089997;28;20063;-77
2021/05/16 10:47:43;;;;;;;5.63;2.28;;;14.40;75.20;;;;;;5073598;28;20126;-76
2021/05/16 10:50:24;;;;;;;4.90;1.63;;;14.40;75.20;;;;;;5090802;28;20089;-75
2021/05/16 10:53:20;;;;;;;4.53;1.83;;;14.30;74.90;;;;;;5091492;28;20044;-76
2021/05/16 10:55:49;;;;;;;5.88;2.50;;;14.30;75.00;;;;;;5091591;28;20040;-79
2021/05/16 10:58:33;;;;;;;6.97;2.85;;;14.20;75.50;;;;;;5089713;28;20051;-76
2021/05/16 11:01:07;;;;;;;7.63;3.10;;;14.10;75.40;;;;;;5091902;28;20064;-76
2021/05/16 11:03:45;;;;;;;3.92;2.63;;;14.00;75.60;;;;;;5068448;28;20415;-80
2021/05/16 11:06:12;;;;;;;10.63;3.75;;;14.00;75.80;;;;;;5073186;28;20123;-78
2021/05/16 11:08:38;;;;;;;7.40;3.33;;;13.90;75.80;;;;;;5096990;28;20119;-80
2021/05/16 11:11:30;;;;;;;6.47;3.20;;;13.80;75.90;;;;;;5095808;28;20537;-84
2021/05/16 11:13:56;;;;;;;7.72;3.35;;;14.00;75.60;;;;;;5083009;28;20043;-77
2021/05/16 11:16:24;;;;;;;4.57;3.20;;;14.20;75.20;;;;;;5058949;28;20044;-80
2021/05/16 11:18:50;;;;;;;8.93;3.30;;;14.30;74.90;;;;;;5062757;28;20036;-80
2021/05/16 11:21:15;;;;;;;6.15;3.53;;;14.20;74.80;;;;;;5078213;28;20063;-84
2021/05/16 11:23:44;;;;;;;7.03;3.22;;;14.20;75.10;;;;;;5046896;28;20206;-75
2021/05/16 11:26:14;;;;;;;10.10;3.33;;;14.10;75.20;;;;;;5078335;28;20055;-76
2021/05/16 11:29:00;;;;;;;6.38;3.17;;;14.10;75.40;;;;;;5078834;28;20154;-78
2021/05/16 11:31:27;;;;;;;8.30;3.22;;;14.00;75.50;;;;;;5080784;28;20052;-77
2021/05/16 11:33:59;;;;;;;9.80;3.28;;;14.10;75.70;;;;;;5079718;28;20135;-81
2021/05/16 11:36:29;;;;;;;5.75;3.25;;;14.20;75.70;;;;;;5060849;28;20428;-79
2021/05/16 11:38:56;;;;;;;9.32;3.42;;;14.30;75.60;;;;;;5077248;28;20067;-79
2021/05/16 11:41:46;;;;;;;8.40;3.83;;;14.40;75.40;;;;;;5071045;28;20052;-79
2021/05/16 11:44:13;;;;;;;5.95;3.00;;;14.50;75.40;;;;;;5082461;28;20059;-85
2021/05/16 11:46:43;;;;;;;9.40;3.63;;;14.70;75.00;;;;;;5080348;28;20052;-77
2021/05/16 11:49:15;;;;;;;10.93;4.57;;;14.90;75.00;;;;;;5097732;28;20044;-83
2021/05/16 11:51:41;;;;;;;7.88;4.15;;;15.30;75.10;;;;;;5080513;28;20036;-82
2021/05/16 11:54:13;;;;;;;9.70;3.50;;;15.70;76.20;;;;;;5104567;28;20051;-81
2021/05/16 11:56:41;;;;;;;6.38;4.13;;;16.20;75.60;;;;;;5090942;28;20519;-81
2021/05/16 11:59:06;;;;;;;8.20;3.88;;;16.70;74.30;;;;;;5090948;28;20096;-81
2021/05/16 12:01:34;;;;;;;8.52;3.85;;;17.10;72.60;;;;;;5090241;28;20052;-84
2021/05/16 12:04:14;;;;;;;7.50;3.00;;;17.40;71.20;;;;;;5076522;28;20040;-83
2021/05/16 12:06:51;;;;;;;11.60;4.68;;;17.60;70.00;;;;;;5079608;28;20036;-82
2021/05/16 12:09:21;;;;;;;8.10;3.70;;;17.70;69.60;;;;;;5062425;28;20067;-91
2021/05/16 12:11:49;;;;;;;8.90;3.85;;;17.70;69.20;;;;;;5081693;28;20452;-74
2021/05/16 12:14:22;;;;;;;9.07;4.55;;;17.90;69.20;;;;;;5079703;28;20044;-85
2021/05/16 12:17:01;;;;;;;9.05;4.55;;;18.20;68.70;;;;;;5057805;28;20032;-77
2021/05/16 12:19:37;;;;;;;12.38;4.45;;;18.40;66.70;;;;;;5082251;28;20036;-79
2021/05/16 12:22:06;;;;;;;5.82;4.10;;;18.50;66.80;;;;;;5081763;28;20044;-82
2021/05/16 12:24:34;;;;;;;7.75;3.80;;;18.50;66.30;;;;;;5099595;28;20041;-83
2021/05/16 12:27:00;;;;;;;8.48;3.83;;;18.50;66.00;;;;;;5099991;28;20496;-79
2021/05/16 12:29:28;;;;;;;10.13;3.92;;;18.50;65.60;;;;;;5068657;28;20056;-77
2021/05/16 12:31:54;;;;;;;7.53;3.80;;;18.50;65.50;;;;;;5048393;28;20040;-81
2021/05/16 12:34:24;;;;;;;6.20;3.90;;;18.40;65.00;;;;;;5097658;28;20472;-83
2021/05/16 12:37:02;;;;;;;10.27;4.85;;;18.20;64.50;;;;;;5082532;28;20115;-78